sensor_id;sensor_type;location;lat;lon;timestamp;pressure;altitude;pressure_sealevel;temperature;humidity
29467;BME280;60968;37.490;-122.288;2023-07-31T00:02:54;98753.28;;;25.68;31.21
29467;BME280;60968;37.490;-122.288;2023-07-31T00:05:55;98753.88;;;25.72;31.78
29467;BME280;60968;37.490;-122.288;2023-07-31T00:08:56;98741.22;;;25.42;32.44
29467;BME280;60968;37.490;-122.288;2023-07-31T00:11:57;98736.72;;;25.42;31.61
29467;BME280;60968;37.490;-122.288;2023-07-31T00:14:58;98727.09;;;25.51;30.44
29467;BME280;60968;37.490;-122.288;2023-07-31T00:17:58;98729.56;;;25.54;29.32
29467;BME280;60968;37.490;-122.288;2023-07-31T00:20:59;98728.44;;;25.57;29.01
29467;BME280;60968;37.490;-122.288;2023-07-31T00:24:00;98713.66;;;25.52;28.78
29467;BME280;60968;37.490;-122.288;2023-07-31T00:27:01;98713.22;;;25.36;28.90
29467;BME280;60968;37.490;-122.288;2023-07-31T00:30:02;98711.50;;;25.35;28.85
29467;BME280;60968;37.490;-122.288;2023-07-31T00:33:04;98715.13;;;25.34;29.21
29467;BME280;60968;37.490;-122.288;2023-07-31T00:36:05;98708.84;;;25.12;30.69
29467;BME280;60968;37.490;-122.288;2023-07-31T00:39:06;98709.66;;;25.02;31.57
29467;BME280;60968;37.490;-122.288;2023-07-31T00:42:08;98703.25;;;24.93;31.50
29467;BME280;60968;37.490;-122.288;2023-07-31T00:45:11;98696.69;;;24.63;31.08
29467;BME280;60968;37.490;-122.288;2023-07-31T00:48:12;98698.28;;;24.41;31.86
29467;BME280;60968;37.490;-122.288;2023-07-31T00:51:13;98695.31;;;24.46;30.45
29467;BME280;60968;37.490;-122.288;2023-07-31T00:54:14;98686.19;;;24.37;30.90
29467;BME280;60968;37.490;-122.288;2023-07-31T00:57:15;98686.41;;;24.34;30.67
29467;BME280;60968;37.490;-122.288;2023-07-31T01:00:16;98685.69;;;24.21;31.11
29467;BME280;60968;37.490;-122.288;2023-07-31T01:03:18;98677.81;;;24.19;30.63
29467;BME280;60968;37.490;-122.288;2023-07-31T01:09:56;98691.75;;;23.98;31.95
29467;BME280;60968;37.490;-122.288;2023-07-31T01:13:02;98678.94;;;23.79;32.00
29467;BME280;60968;37.490;-122.288;2023-07-31T01:16:04;98679.00;;;23.67;31.76
29467;BME280;60968;37.490;-122.288;2023-07-31T01:19:06;98677.91;;;23.69;31.80
29467;BME280;60968;37.490;-122.288;2023-07-31T01:32:35;98700.16;;;23.31;30.87
29467;BME280;60968;37.490;-122.288;2023-07-31T01:35:37;98696.59;;;23.19;31.25
29467;BME280;60968;37.490;-122.288;2023-07-31T01:38:38;98703.28;;;23.12;31.54
29467;BME280;60968;37.490;-122.288;2023-07-31T01:41:39;98711.78;;;23.04;31.15
29467;BME280;60968;37.490;-122.288;2023-07-31T01:44:40;98703.06;;;22.89;30.84
29467;BME280;60968;37.490;-122.288;2023-07-31T01:47:41;98706.06;;;22.85;30.76
29467;BME280;60968;37.490;-122.288;2023-07-31T01:50:42;98705.09;;;22.73;31.18
29467;BME280;60968;37.490;-122.288;2023-07-31T01:53:43;98715.09;;;22.69;30.87
29467;BME280;60968;37.490;-122.288;2023-07-31T01:56:44;98720.28;;;22.58;31.32
29467;BME280;60968;37.490;-122.288;2023-07-31T01:59:45;98733.66;;;22.43;32.46
29467;BME280;60968;37.490;-122.288;2023-07-31T02:02:46;98729.72;;;22.22;33.22
29467;BME280;60968;37.490;-122.288;2023-07-31T02:05:48;98732.72;;;21.90;34.76
29467;BME280;60968;37.490;-122.288;2023-07-31T02:08:49;98738.13;;;21.88;35.01
29467;BME280;60968;37.490;-122.288;2023-07-31T02:11:50;98734.31;;;21.92;35.81
29467;BME280;60968;37.490;-122.288;2023-07-31T02:14:52;98734.34;;;21.78;37.38
29467;BME280;60968;37.490;-122.288;2023-07-31T02:17:53;98737.72;;;21.38;39.06
29467;BME280;60968;37.490;-122.288;2023-07-31T02:20:54;98741.34;;;21.23;40.75
29467;BME280;60968;37.490;-122.288;2023-07-31T02:23:55;98733.47;;;20.93;42.91
29467;BME280;60968;37.490;-122.288;2023-07-31T02:26:56;98748.63;;;20.76;44.13
29467;BME280;60968;37.490;-122.288;2023-07-31T02:29:57;98741.13;;;20.68;44.57
29467;BME280;60968;37.490;-122.288;2023-07-31T02:32:57;98745.44;;;20.55;45.53
29467;BME280;60968;37.490;-122.288;2023-07-31T02:35:58;98743.50;;;20.43;47.16
29467;BME280;60968;37.490;-122.288;2023-07-31T02:38:59;98744.69;;;20.22;46.80
29467;BME280;60968;37.490;-122.288;2023-07-31T02:42:00;98739.72;;;20.16;47.16
29467;BME280;60968;37.490;-122.288;2023-07-31T02:45:01;98738.56;;;20.06;45.16
29467;BME280;60968;37.490;-122.288;2023-07-31T02:48:01;98737.28;;;20.13;47.07
29467;BME280;60968;37.490;-122.288;2023-07-31T02:51:02;98738.41;;;19.93;49.00
29467;BME280;60968;37.490;-122.288;2023-07-31T02:54:03;98739.88;;;19.83;49.81
29467;BME280;60968;37.490;-122.288;2023-07-31T02:57:04;98743.69;;;19.45;54.03
29467;BME280;60968;37.490;-122.288;2023-07-31T03:00:06;98746.13;;;19.16;56.17
29467;BME280;60968;37.490;-122.288;2023-07-31T03:03:07;98752.00;;;18.53;61.27
29467;BME280;60968;37.490;-122.288;2023-07-31T03:06:08;98747.91;;;18.30;64.23
29467;BME280;60968;37.490;-122.288;2023-07-31T03:09:09;98758.44;;;18.12;65.14
29467;BME280;60968;37.490;-122.288;2023-07-31T03:12:10;98756.09;;;17.87;67.01
29467;BME280;60968;37.490;-122.288;2023-07-31T03:15:11;98759.28;;;17.57;68.97
29467;BME280;60968;37.490;-122.288;2023-07-31T03:18:13;98765.75;;;17.50;70.42
29467;BME280;60968;37.490;-122.288;2023-07-31T03:21:14;98767.66;;;17.46;70.78
29467;BME280;60968;37.490;-122.288;2023-07-31T03:24:15;98769.38;;;17.47;70.63
29467;BME280;60968;37.490;-122.288;2023-07-31T03:27:16;98769.44;;;17.46;70.29
29467;BME280;60968;37.490;-122.288;2023-07-31T03:30:17;98777.06;;;17.52;68.54
29467;BME280;60968;37.490;-122.288;2023-07-31T03:33:19;98777.06;;;17.52;68.23
29467;BME280;60968;37.490;-122.288;2023-07-31T03:36:20;98774.66;;;17.47;67.62
29467;BME280;60968;37.490;-122.288;2023-07-31T03:39:22;98772.59;;;17.54;66.15
29467;BME280;60968;37.490;-122.288;2023-07-31T03:42:23;98774.78;;;17.44;66.29
29467;BME280;60968;37.490;-122.288;2023-07-31T03:45:24;98778.91;;;17.50;63.92
29467;BME280;60968;37.490;-122.288;2023-07-31T03:48:25;98771.88;;;17.70;59.52
29467;BME280;60968;37.490;-122.288;2023-07-31T03:51:26;98764.88;;;17.88;59.11
29467;BME280;60968;37.490;-122.288;2023-07-31T03:54:28;98771.44;;;18.15;55.14
29467;BME280;60968;37.490;-122.288;2023-07-31T03:57:29;98767.97;;;18.32;55.02
29467;BME280;60968;37.490;-122.288;2023-07-31T04:00:31;98769.94;;;18.46;54.10
29467;BME280;60968;37.490;-122.288;2023-07-31T04:03:32;98771.72;;;18.46;54.18
29467;BME280;60968;37.490;-122.288;2023-07-31T04:06:33;98769.53;;;18.37;54.27
29467;BME280;60968;37.490;-122.288;2023-07-31T04:09:34;98778.78;;;18.45;54.08
29467;BME280;60968;37.490;-122.288;2023-07-31T04:12:35;98777.16;;;18.43;54.45
29467;BME280;60968;37.490;-122.288;2023-07-31T04:15:36;98776.44;;;18.39;55.33
29467;BME280;60968;37.490;-122.288;2023-07-31T04:18:38;98783.63;;;18.18;56.15
29467;BME280;60968;37.490;-122.288;2023-07-31T04:21:39;98783.31;;;18.07;58.75
29467;BME280;60968;37.490;-122.288;2023-07-31T04:24:40;98776.41;;;17.85;59.79
29467;BME280;60968;37.490;-122.288;2023-07-31T04:27:42;98784.25;;;17.67;61.49
29467;BME280;60968;37.490;-122.288;2023-07-31T04:30:43;98788.03;;;17.62;60.99
29467;BME280;60968;37.490;-122.288;2023-07-31T04:33:44;98786.47;;;17.39;63.93
29467;BME280;60968;37.490;-122.288;2023-07-31T04:36:45;98788.72;;;17.27;63.60
29467;BME280;60968;37.490;-122.288;2023-07-31T04:39:46;98797.16;;;17.15;65.80
29467;BME280;60968;37.490;-122.288;2023-07-31T04:42:47;98798.84;;;16.76;69.64
29467;BME280;60968;37.490;-122.288;2023-07-31T04:45:48;98793.09;;;16.67;69.23
29467;BME280;60968;37.490;-122.288;2023-07-31T04:48:49;98793.50;;;16.78;67.05
29467;BME280;60968;37.490;-122.288;2023-07-31T04:51:50;98797.19;;;16.94;65.41
29467;BME280;60968;37.490;-122.288;2023-07-31T04:54:51;98797.84;;;17.00;65.84
29467;BME280;60968;37.490;-122.288;2023-07-31T04:57:52;98800.19;;;16.85;66.66
29467;BME280;60968;37.490;-122.288;2023-07-31T05:00:54;98799.41;;;16.83;69.01
29467;BME280;60968;37.490;-122.288;2023-07-31T05:03:56;98799.22;;;16.67;69.38
29467;BME280;60968;37.490;-122.288;2023-07-31T05:06:58;98792.22;;;16.66;68.92
29467;BME280;60968;37.490;-122.288;2023-07-31T05:09:59;98800.53;;;16.77;67.26
29467;BME280;60968;37.490;-122.288;2023-07-31T05:13:00;98798.84;;;16.76;67.41
29467;BME280;60968;37.490;-122.288;2023-07-31T05:16:01;98808.22;;;16.82;67.00
29467;BME280;60968;37.490;-122.288;2023-07-31T05:19:03;98815.47;;;16.77;66.73
29467;BME280;60968;37.490;-122.288;2023-07-31T05:22:04;98817.41;;;16.94;65.28
29467;BME280;60968;37.490;-122.288;2023-07-31T05:25:06;98818.06;;;16.99;65.38
29467;BME280;60968;37.490;-122.288;2023-07-31T05:28:07;98823.50;;;16.94;65.30
29467;BME280;60968;37.490;-122.288;2023-07-31T05:31:08;98819.59;;;16.83;66.03
29467;BME280;60968;37.490;-122.288;2023-07-31T05:34:09;98824.94;;;16.81;67.05
29467;BME280;60968;37.490;-122.288;2023-07-31T05:37:11;98823.53;;;16.52;70.36
29467;BME280;60968;37.490;-122.288;2023-07-31T05:40:12;98819.31;;;16.25;72.96
29467;BME280;60968;37.490;-122.288;2023-07-31T05:43:13;98816.53;;;16.08;73.68
29467;BME280;60968;37.490;-122.288;2023-07-31T05:46:14;98804.66;;;15.98;75.45
29467;BME280;60968;37.490;-122.288;2023-07-31T05:49:15;98809.44;;;15.88;75.88
29467;BME280;60968;37.490;-122.288;2023-07-31T05:52:16;98812.00;;;15.89;76.04
29467;BME280;60968;37.490;-122.288;2023-07-31T05:55:18;98806.75;;;15.89;77.02
29467;BME280;60968;37.490;-122.288;2023-07-31T05:58:19;98810.28;;;15.88;76.38
29467;BME280;60968;37.490;-122.288;2023-07-31T06:01:20;98803.75;;;15.99;78.12
29467;BME280;60968;37.490;-122.288;2023-07-31T06:04:21;98818.69;;;16.20;81.40
29467;BME280;60968;37.490;-122.288;2023-07-31T06:07:22;98816.41;;;16.33;81.14
29467;BME280;60968;37.490;-122.288;2023-07-31T06:10:23;98818.22;;;16.31;81.35
29467;BME280;60968;37.490;-122.288;2023-07-31T06:13:24;98812.38;;;16.24;81.92
29467;BME280;60968;37.490;-122.288;2023-07-31T06:16:25;98816.81;;;16.22;82.78
29467;BME280;60968;37.490;-122.288;2023-07-31T06:19:27;98805.63;;;16.17;83.03
29467;BME280;60968;37.490;-122.288;2023-07-31T06:22:28;98798.78;;;16.13;85.09
29467;BME280;60968;37.490;-122.288;2023-07-31T06:25:29;98789.34;;;16.09;85.03
29467;BME280;60968;37.490;-122.288;2023-07-31T06:28:31;98798.19;;;16.06;85.29
29467;BME280;60968;37.490;-122.288;2023-07-31T06:31:32;98792.44;;;15.97;86.95
29467;BME280;60968;37.490;-122.288;2023-07-31T06:34:33;98791.22;;;15.83;88.73
29467;BME280;60968;37.490;-122.288;2023-07-31T06:37:34;98783.47;;;15.80;89.18
29467;BME280;60968;37.490;-122.288;2023-07-31T06:40:35;98780.97;;;15.75;89.17
29467;BME280;60968;37.490;-122.288;2023-07-31T06:43:36;98788.59;;;15.59;92.42
29467;BME280;60968;37.490;-122.288;2023-07-31T06:46:38;98793.06;;;15.57;92.98
29467;BME280;60968;37.490;-122.288;2023-07-31T06:49:39;98786.72;;;15.63;92.21
29467;BME280;60968;37.490;-122.288;2023-07-31T06:52:40;98790.94;;;15.67;91.60
29467;BME280;60968;37.490;-122.288;2023-07-31T06:55:41;98791.00;;;15.66;91.89
29467;BME280;60968;37.490;-122.288;2023-07-31T06:58:42;98782.72;;;15.53;93.44
29467;BME280;60968;37.490;-122.288;2023-07-31T07:01:43;98779.22;;;15.29;97.07
29467;BME280;60968;37.490;-122.288;2023-07-31T07:04:44;98778.72;;;15.19;97.21
29467;BME280;60968;37.490;-122.288;2023-07-31T07:07:45;98781.41;;;15.17;97.02
29467;BME280;60968;37.490;-122.288;2023-07-31T07:10:47;98780.31;;;15.23;94.35
29467;BME280;60968;37.490;-122.288;2023-07-31T07:13:48;98780.06;;;15.31;92.67
29467;BME280;60968;37.490;-122.288;2023-07-31T07:16:51;98785.69;;;15.43;91.06
29467;BME280;60968;37.490;-122.288;2023-07-31T07:19:52;98776.22;;;15.39;89.68
29467;BME280;60968;37.490;-122.288;2023-07-31T07:22:53;98776.09;;;15.19;90.47
29467;BME280;60968;37.490;-122.288;2023-07-31T07:25:54;98776.59;;;15.30;89.33
29467;BME280;60968;37.490;-122.288;2023-07-31T07:28:55;98777.63;;;15.24;88.04
29467;BME280;60968;37.490;-122.288;2023-07-31T07:31:56;98777.88;;;15.18;89.92
29467;BME280;60968;37.490;-122.288;2023-07-31T07:34:58;98778.28;;;15.31;94.19
29467;BME280;60968;37.490;-122.288;2023-07-31T07:37:59;98774.56;;;15.37;94.22
29467;BME280;60968;37.490;-122.288;2023-07-31T07:41:00;98779.00;;;15.11;93.74
29467;BME280;60968;37.490;-122.288;2023-07-31T07:44:01;98780.69;;;15.14;94.43
29467;BME280;60968;37.490;-122.288;2023-07-31T07:47:02;98776.91;;;15.21;96.01
29467;BME280;60968;37.490;-122.288;2023-07-31T07:50:04;98774.78;;;15.07;99.15
29467;BME280;60968;37.490;-122.288;2023-07-31T07:53:05;98778.66;;;14.97;100.00
29467;BME280;60968;37.490;-122.288;2023-07-31T07:56:07;98778.03;;;14.90;100.00
29467;BME280;60968;37.490;-122.288;2023-07-31T07:59:08;98776.59;;;14.81;100.00
29467;BME280;60968;37.490;-122.288;2023-07-31T08:02:09;98765.63;;;14.70;100.00
29467;BME280;60968;37.490;-122.288;2023-07-31T08:05:11;98763.25;;;14.61;100.00
29467;BME280;60968;37.490;-122.288;2023-07-31T08:08:15;98768.69;;;14.56;100.00
29467;BME280;60968;37.490;-122.288;2023-07-31T08:11:16;98767.91;;;14.52;100.00
29467;BME280;60968;37.490;-122.288;2023-07-31T08:14:17;98768.78;;;14.53;100.00
29467;BME280;60968;37.490;-122.288;2023-07-31T08:17:18;98763.56;;;14.51;100.00
29467;BME280;60968;37.490;-122.288;2023-07-31T08:20:19;98762.66;;;14.52;100.00
29467;BME280;60968;37.490;-122.288;2023-07-31T08:23:20;98764.63;;;14.47;100.00
29467;BME280;60968;37.490;-122.288;2023-07-31T08:26:21;98753.19;;;14.48;100.00
29467;BME280;60968;37.490;-122.288;2023-07-31T08:29:22;98752.03;;;14.57;100.00
29467;BME280;60968;37.490;-122.288;2023-07-31T08:32:23;98752.66;;;14.38;100.00
29467;BME280;60968;37.490;-122.288;2023-07-31T08:35:26;98752.69;;;14.37;100.00
29467;BME280;60968;37.490;-122.288;2023-07-31T08:38:27;98756.03;;;14.42;100.00
29467;BME280;60968;37.490;-122.288;2023-07-31T08:41:28;98753.72;;;14.33;100.00
29467;BME280;60968;37.490;-122.288;2023-07-31T08:44:31;98746.84;;;14.29;100.00
29467;BME280;60968;37.490;-122.288;2023-07-31T08:47:32;98746.38;;;14.17;100.00
29467;BME280;60968;37.490;-122.288;2023-07-31T08:50:33;98748.19;;;14.15;100.00
29467;BME280;60968;37.490;-122.288;2023-07-31T08:53:35;98738.59;;;14.14;100.00
29467;BME280;60968;37.490;-122.288;2023-07-31T08:56:36;98737.00;;;14.10;100.00
29467;BME280;60968;37.490;-122.288;2023-07-31T08:59:38;98731.69;;;14.12;100.00
29467;BME280;60968;37.490;-122.288;2023-07-31T09:02:48;98722.88;;;14.14;100.00
29467;BME280;60968;37.490;-122.288;2023-07-31T09:05:52;98714.50;;;14.30;100.00
29467;BME280;60968;37.490;-122.288;2023-07-31T09:08:54;98720.09;;;14.19;100.00
29467;BME280;60968;37.490;-122.288;2023-07-31T09:11:56;98707.00;;;14.19;100.00
29467;BME280;60968;37.490;-122.288;2023-07-31T09:14:58;98711.72;;;14.34;100.00
29467;BME280;60968;37.490;-122.288;2023-07-31T09:18:00;98704.47;;;14.43;100.00
29467;BME280;60968;37.490;-122.288;2023-07-31T09:21:05;98703.72;;;14.39;100.00
29467;BME280;60968;37.490;-122.288;2023-07-31T09:24:08;98708.97;;;14.39;100.00
29467;BME280;60968;37.490;-122.288;2023-07-31T09:27:09;98705.22;;;14.46;100.00
29467;BME280;60968;37.490;-122.288;2023-07-31T09:30:10;98711.06;;;14.54;100.00
29467;BME280;60968;37.490;-122.288;2023-07-31T09:33:12;98706.47;;;14.59;100.00
29467;BME280;60968;37.490;-122.288;2023-07-31T09:36:13;98702.75;;;14.67;100.00
29467;BME280;60968;37.490;-122.288;2023-07-31T09:39:15;98704.31;;;14.72;100.00
29467;BME280;60968;37.490;-122.288;2023-07-31T09:42:26;98712.16;;;14.74;100.00
29467;BME280;60968;37.490;-122.288;2023-07-31T09:45:29;98709.72;;;14.68;100.00
29467;BME280;60968;37.490;-122.288;2023-07-31T09:48:30;98721.28;;;14.62;100.00
29467;BME280;60968;37.490;-122.288;2023-07-31T09:51:31;98722.63;;;14.49;100.00
29467;BME280;60968;37.490;-122.288;2023-07-31T09:54:32;98708.38;;;14.31;100.00
29467;BME280;60968;37.490;-122.288;2023-07-31T09:57:34;98705.59;;;14.35;100.00
29467;BME280;60968;37.490;-122.288;2023-07-31T10:00:39;98705.63;;;14.34;100.00
29467;BME280;60968;37.490;-122.288;2023-07-31T10:03:41;98707.22;;;14.13;100.00
29467;BME280;60968;37.490;-122.288;2023-07-31T10:06:43;98717.59;;;13.89;100.00
29467;BME280;60968;37.490;-122.288;2023-07-31T10:09:47;98707.47;;;13.78;100.00
29467;BME280;60968;37.490;-122.288;2023-07-31T10:12:50;98716.75;;;13.88;100.00
29467;BME280;60968;37.490;-122.288;2023-07-31T10:15:52;98713.59;;;14.05;100.00
29467;BME280;60968;37.490;-122.288;2023-07-31T10:18:54;98715.59;;;13.97;100.00
29467;BME280;60968;37.490;-122.288;2023-07-31T10:21:56;98715.75;;;13.93;100.00
29467;BME280;60968;37.490;-122.288;2023-07-31T10:24:59;98715.53;;;13.99;100.00
29467;BME280;60968;37.490;-122.288;2023-07-31T10:28:00;98704.22;;;13.98;100.00
29467;BME280;60968;37.490;-122.288;2023-07-31T10:31:03;98711.91;;;14.03;100.00
29467;BME280;60968;37.490;-122.288;2023-07-31T10:34:05;98718.75;;;14.07;100.00
29467;BME280;60968;37.490;-122.288;2023-07-31T10:37:25;98712.31;;;13.90;100.00
29467;BME280;60968;37.490;-122.288;2023-07-31T10:40:27;98716.91;;;13.84;100.00
29467;BME280;60968;37.490;-122.288;2023-07-31T10:43:28;98714.13;;;13.88;100.00
29467;BME280;60968;37.490;-122.288;2023-07-31T10:46:29;98712.81;;;14.02;100.00
29467;BME280;60968;37.490;-122.288;2023-07-31T10:49:30;98714.53;;;14.03;100.00
29467;BME280;60968;37.490;-122.288;2023-07-31T10:52:34;98713.75;;;14.01;100.00
29467;BME280;60968;37.490;-122.288;2023-07-31T10:55:42;98706.00;;;13.96;100.00
29467;BME280;60968;37.490;-122.288;2023-07-31T10:58:44;98706.94;;;13.95;100.00
29467;BME280;60968;37.490;-122.288;2023-07-31T11:02:03;98713.03;;;13.96;100.00
29467;BME280;60968;37.490;-122.288;2023-07-31T11:05:10;98713.19;;;13.91;100.00
29467;BME280;60968;37.490;-122.288;2023-07-31T11:08:22;98712.19;;;13.94;100.00
29467;BME280;60968;37.490;-122.288;2023-07-31T11:11:23;98711.13;;;13.99;100.00
29467;BME280;60968;37.490;-122.288;2023-07-31T11:14:24;98712.97;;;13.97;100.00
29467;BME280;60968;37.490;-122.288;2023-07-31T11:17:26;98709.59;;;13.94;100.00
29467;BME280;60968;37.490;-122.288;2023-07-31T11:20:29;98713.25;;;13.89;100.00
29467;BME280;60968;37.490;-122.288;2023-07-31T11:23:31;98716.69;;;13.90;100.00
29467;BME280;60968;37.490;-122.288;2023-07-31T11:26:32;98720.31;;;13.86;100.00
29467;BME280;60968;37.490;-122.288;2023-07-31T11:29:33;98716.19;;;13.79;100.00
29467;BME280;60968;37.490;-122.288;2023-07-31T11:32:36;98708.44;;;13.76;100.00
29467;BME280;60968;37.490;-122.288;2023-07-31T11:35:48;98718.81;;;13.79;100.00
29467;BME280;60968;37.490;-122.288;2023-07-31T11:38:49;98713.63;;;13.77;100.00
29467;BME280;60968;37.490;-122.288;2023-07-31T11:41:50;98712.22;;;13.65;100.00
29467;BME280;60968;37.490;-122.288;2023-07-31T11:44:51;98718.56;;;13.58;100.00
29467;BME280;60968;37.490;-122.288;2023-07-31T11:47:53;98727.63;;;13.48;100.00
29467;BME280;60968;37.490;-122.288;2023-07-31T11:50:57;98717.38;;;13.40;100.00
29467;BME280;60968;37.490;-122.288;2023-07-31T11:54:00;98709.47;;;13.42;100.00
29467;BME280;60968;37.490;-122.288;2023-07-31T11:57:03;98711.47;;;13.33;100.00
29467;BME280;60968;37.490;-122.288;2023-07-31T12:00:06;98716.75;;;13.32;100.00
29467;BME280;60968;37.490;-122.288;2023-07-31T12:03:08;98712.34;;;13.32;100.00
29467;BME280;60968;37.490;-122.288;2023-07-31T12:06:09;98715.91;;;13.30;100.00
29467;BME280;60968;37.490;-122.288;2023-07-31T12:09:10;98714.28;;;13.26;100.00
29467;BME280;60968;37.490;-122.288;2023-07-31T12:12:22;98712.56;;;13.25;100.00
29467;BME280;60968;37.490;-122.288;2023-07-31T12:15:29;98718.78;;;13.22;100.00
29467;BME280;60968;37.490;-122.288;2023-07-31T12:18:34;98722.19;;;13.24;100.00
29467;BME280;60968;37.490;-122.288;2023-07-31T12:21:37;98715.00;;;13.31;100.00
29467;BME280;60968;37.490;-122.288;2023-07-31T12:24:40;98715.91;;;13.30;100.00
29467;BME280;60968;37.490;-122.288;2023-07-31T12:27:44;98717.94;;;13.20;100.00
29467;BME280;60968;37.490;-122.288;2023-07-31T12:30:45;98718.84;;;13.19;100.00
29467;BME280;60968;37.490;-122.288;2023-07-31T12:33:48;98717.25;;;13.13;100.00
29467;BME280;60968;37.490;-122.288;2023-07-31T12:36:49;98716.47;;;13.11;100.00
29467;BME280;60968;37.490;-122.288;2023-07-31T12:39:50;98714.56;;;13.16;100.00
29467;BME280;60968;37.490;-122.288;2023-07-31T12:42:51;98713.88;;;13.10;100.00
29467;BME280;60968;37.490;-122.288;2023-07-31T12:45:54;98714.00;;;13.05;100.00
29467;BME280;60968;37.490;-122.288;2023-07-31T12:48:55;98720.94;;;13.06;100.00
29467;BME280;60968;37.490;-122.288;2023-07-31T12:51:56;98710.34;;;13.12;100.00
29467;BME280;60968;37.490;-122.288;2023-07-31T12:54:57;98714.53;;;13.18;100.00
29467;BME280;60968;37.490;-122.288;2023-07-31T12:57:58;98723.31;;;13.15;100.00
29467;BME280;60968;37.490;-122.288;2023-07-31T13:00:59;98723.22;;;13.18;100.00
29467;BME280;60968;37.490;-122.288;2023-07-31T13:04:00;98718.78;;;13.22;100.00
29467;BME280;60968;37.490;-122.288;2023-07-31T13:07:01;98710.88;;;13.24;100.00
29467;BME280;60968;37.490;-122.288;2023-07-31T13:10:02;98709.91;;;13.26;100.00
29467;BME280;60968;37.490;-122.288;2023-07-31T13:13:03;98721.50;;;13.17;100.00
29467;BME280;60968;37.490;-122.288;2023-07-31T13:16:04;98725.00;;;13.18;100.00
29467;BME280;60968;37.490;-122.288;2023-07-31T13:19:06;98713.38;;;13.27;100.00
29467;BME280;60968;37.490;-122.288;2023-07-31T13:22:08;98709.72;;;13.32;100.00
29467;BME280;60968;37.490;-122.288;2023-07-31T13:25:09;98714.69;;;13.43;100.00
29467;BME280;60968;37.490;-122.288;2023-07-31T13:28:10;98717.19;;;13.46;100.00
29467;BME280;60968;37.490;-122.288;2023-07-31T13:31:11;98729.94;;;13.57;100.00
29467;BME280;60968;37.490;-122.288;2023-07-31T13:34:12;98730.91;;;13.54;100.00
29467;BME280;60968;37.490;-122.288;2023-07-31T13:37:13;98734.53;;;13.50;100.00
29467;BME280;60968;37.490;-122.288;2023-07-31T13:40:17;98735.38;;;13.51;100.00
29467;BME280;60968;37.490;-122.288;2023-07-31T13:43:21;98737.00;;;13.55;100.00
29467;BME280;60968;37.490;-122.288;2023-07-31T13:46:22;98748.13;;;13.62;100.00
29467;BME280;60968;37.490;-122.288;2023-07-31T13:49:23;98748.00;;;13.66;100.00
29467;BME280;60968;37.490;-122.288;2023-07-31T13:52:24;98739.13;;;13.70;100.00
29467;BME280;60968;37.490;-122.288;2023-07-31T13:55:25;98741.66;;;13.73;100.00
29467;BME280;60968;37.490;-122.288;2023-07-31T13:58:26;98745.84;;;13.79;100.00
29467;BME280;60968;37.490;-122.288;2023-07-31T14:01:27;98756.38;;;13.78;100.00
29467;BME280;60968;37.490;-122.288;2023-07-31T14:04:28;98744.22;;;13.75;100.00
29467;BME280;60968;37.490;-122.288;2023-07-31T14:07:30;98747.94;;;13.68;100.00
29467;BME280;60968;37.490;-122.288;2023-07-31T14:10:32;98747.78;;;13.74;100.00
29467;BME280;60968;37.490;-122.288;2023-07-31T14:13:33;98744.31;;;13.72;100.00
29467;BME280;60968;37.490;-122.288;2023-07-31T14:16:34;98744.16;;;13.77;100.00
29467;BME280;60968;37.490;-122.288;2023-07-31T14:19:35;98748.66;;;13.73;100.00
29467;BME280;60968;37.490;-122.288;2023-07-31T14:22:39;98753.53;;;13.85;100.00
29467;BME280;60968;37.490;-122.288;2023-07-31T14:25:40;98756.41;;;13.76;100.00
29467;BME280;60968;37.490;-122.288;2023-07-31T14:28:41;98745.53;;;13.62;100.00
29467;BME280;60968;37.490;-122.288;2023-07-31T14:31:42;98750.94;;;13.55;100.00
29467;BME280;60968;37.490;-122.288;2023-07-31T14:34:43;98762.53;;;13.75;100.00
29467;BME280;60968;37.490;-122.288;2023-07-31T14:37:44;98760.28;;;13.93;100.00
29467;BME280;60968;37.490;-122.288;2023-07-31T14:40:46;98765.72;;;14.13;100.00
29467;BME280;60968;37.490;-122.288;2023-07-31T14:43:47;98763.28;;;14.34;100.00
29467;BME280;60968;37.490;-122.288;2023-07-31T14:46:48;98772.19;;;14.55;100.00
29467;BME280;60968;37.490;-122.288;2023-07-31T14:49:49;98767.59;;;14.62;100.00
29467;BME280;60968;37.490;-122.288;2023-07-31T14:52:50;98774.38;;;14.69;100.00
29467;BME280;60968;37.490;-122.288;2023-07-31T14:55:53;98781.59;;;14.62;100.00
29467;BME280;60968;37.490;-122.288;2023-07-31T14:58:54;98778.84;;;14.65;100.00
29467;BME280;60968;37.490;-122.288;2023-07-31T15:01:55;98780.34;;;14.72;100.00
29467;BME280;60968;37.490;-122.288;2023-07-31T15:04:57;98780.06;;;14.82;100.00
29467;BME280;60968;37.490;-122.288;2023-07-31T15:07:58;98784.97;;;14.91;100.00
29467;BME280;60968;37.490;-122.288;2023-07-31T15:10:59;98786.25;;;15.04;100.00
29467;BME280;60968;37.490;-122.288;2023-07-31T15:14:00;98782.47;;;15.12;100.00
29467;BME280;60968;37.490;-122.288;2023-07-31T15:17:01;98780.50;;;15.18;100.00
29467;BME280;60968;37.490;-122.288;2023-07-31T15:20:02;98783.41;;;15.34;100.00
29467;BME280;60968;37.490;-122.288;2023-07-31T15:23:03;98791.34;;;15.56;100.00
29467;BME280;60968;37.490;-122.288;2023-07-31T15:26:04;98801.31;;;15.70;100.00
29467;BME280;60968;37.490;-122.288;2023-07-31T15:29:06;98798.63;;;15.95;100.00
29467;BME280;60968;37.490;-122.288;2023-07-31T15:32:07;98814.31;;;16.19;100.00
29467;BME280;60968;37.490;-122.288;2023-07-31T15:35:08;98816.28;;;16.36;100.00